Time;durP1;ratioP1;P1;durP2;ratioP2;P2;SDS_P1;SDS_P2;PMS_P1;PMS_P2;Temp;Humidity;BMP_temperature;BMP_pressure;BME280_temperature;BME280_humidity;BME280_pressure;Samples;Min_cycle;Max_cycle;Signal;HPM_P1;HPM_P2
2021/12/18 00:01:47;;;;;;;;;;;7.80;99.90;;;;;;4988163;28;19922;-76
2021/12/18 00:04:12;;;;;;;;;;;7.80;99.90;;;;;;4995089;28;19921;-76
2021/12/18 00:06:38;;;;;;;;;;;7.70;99.90;;;;;;4992913;28;19968;-76
2021/12/18 00:09:04;;;;;;;;;;;7.70;99.90;;;;;;4994488;28;19910;-75
2021/12/18 00:11:29;;;;;;;;;;;7.60;99.90;;;;;;4995180;28;20004;-75
2021/12/18 00:13:55;;;;;;;;;;;7.60;99.90;;;;;;4994841;28;20300;-75
2021/12/18 00:16:21;;;;;;;;;;;7.70;99.90;;;;;;4996007;28;19926;-76
2021/12/18 00:18:49;;;;;;;;;;;7.70;99.90;;;;;;5009916;28;19929;-76
2021/12/18 00:21:17;;;;;;;;;;;7.70;99.90;;;;;;4998898;28;19920;-76
2021/12/18 00:23:43;;;;;;;;;;;7.70;99.90;;;;;;4983566;28;19922;-77
2021/12/18 00:26:09;;;;;;;;;;;7.60;99.90;;;;;;4996599;28;19964;-76
2021/12/18 00:28:35;;;;;;;;;;;7.60;99.90;;;;;;4991595;28;19963;-75
2021/12/18 00:31:00;;;;;;;;;;;7.60;99.90;;;;;;5000818;28;19997;-76
2021/12/18 00:33:26;;;;;;;;;;;7.60;99.90;;;;;;5004140;28;20016;-76
2021/12/18 00:35:52;;;;;;;;;;;7.50;99.90;;;;;;4995687;28;19918;-75
2021/12/18 00:38:17;;;;;;;;;;;7.50;99.90;;;;;;4995921;28;20008;-76
2021/12/18 00:41:10;;;;;;;;;;;7.40;99.90;;;;;;4995737;28;19941;-75
2021/12/18 00:44:01;;;;;;;;;;;7.40;99.90;;;;;;5001273;28;20225;-75
2021/12/18 00:46:24;;;;;;;;;;;7.40;99.90;;;;;;5004492;28;19936;-76
2021/12/18 00:48:50;;;;;;;;;;;7.40;99.90;;;;;;5002416;28;19968;-75
2021/12/18 00:51:15;;;;;;;;;;;7.40;99.90;;;;;;5012641;28;20309;-75
2021/12/18 00:53:41;;;;;;;;;;;7.40;99.90;;;;;;4995789;28;19918;-76
2021/12/18 00:56:06;;;;;;;;;;;7.50;99.90;;;;;;5009212;28;20316;-75
2021/12/18 00:58:32;;;;;;;;;;;7.50;99.90;;;;;;4999351;28;19910;-75
2021/12/18 01:00:57;;;;;;;;;;;7.40;99.90;;;;;;4997860;28;20000;-75
2021/12/18 01:03:23;;;;;;;;;;;7.50;99.90;;;;;;4994699;28;19914;-75
2021/12/18 01:05:49;;;;;;;;;;;7.50;99.90;;;;;;4991083;28;20008;-75
2021/12/18 01:08:15;;;;;;;;;;;7.40;99.90;;;;;;5011653;28;19960;-75
2021/12/18 01:13:13;;;;;;;;;;;7.40;99.90;;;;;;4999026;28;19914;-76
2021/12/18 01:15:46;;;;;;;;;;;7.40;99.90;;;;;;4998675;28;19918;-75
2021/12/18 01:23:40;;;;;;;;;;;7.40;99.90;;;;;;5016397;28;19924;-75
2021/12/18 01:26:05;;;;;;;;;;;7.30;99.90;;;;;;5017937;28;20212;-75
2021/12/18 01:28:31;;;;;;;;;;;7.30;99.90;;;;;;4998130;28;19921;-75
2021/12/18 01:30:57;;;;;;;;;;;7.30;99.90;;;;;;4995083;28;19968;-76
2021/12/18 01:33:23;;;;;;;;;;;7.30;99.90;;;;;;4998577;28;20329;-75
2021/12/18 01:35:49;;;;;;;;;;;7.30;99.90;;;;;;4995527;28;19921;-75
2021/12/18 01:38:15;;;;;;;;;;;7.30;99.90;;;;;;4998407;28;19959;-75
2021/12/18 01:40:41;;;;;;;;;;;7.30;99.90;;;;;;4998268;28;19914;-75
2021/12/18 01:46:32;;;;;;;;;;;7.30;99.90;;;;;;4968325;28;19914;-75
2021/12/18 01:54:14;;;;;;;;;;;7.30;99.90;;;;;;5000744;28;19914;-75
2021/12/18 01:56:39;;;;;;;;;;;7.30;99.90;;;;;;4997861;28;19914;-75
2021/12/18 01:59:05;;;;;;;;;;;7.30;99.90;;;;;;5000468;28;19913;-75
2021/12/18 02:01:32;;;;;;;;;;;7.20;99.90;;;;;;4995122;28;20052;-76
2021/12/18 02:03:57;;;;;;;;;;;7.20;99.90;;;;;;4997076;28;19929;-75
2021/12/18 02:06:24;;;;;;;;;;;7.20;99.90;;;;;;4995395;28;19910;-75
2021/12/18 02:08:49;;;;;;;;;;;7.20;99.90;;;;;;4982073;28;20049;-76
2021/12/18 02:21:57;;;;;;;;;;;7.00;99.90;;;;;;4995953;28;20033;-75
2021/12/18 02:24:26;;;;;;;;;;;7.10;99.90;;;;;;4997335;28;20005;-76
2021/12/18 02:26:51;;;;;;;;;;;7.10;99.90;;;;;;4995993;28;20248;-75
2021/12/18 02:29:17;;;;;;;;;;;7.10;99.90;;;;;;4997501;28;20021;-75
2021/12/18 02:31:43;;;;;;;;;;;7.10;99.90;;;;;;4996140;28;20008;-75
2021/12/18 02:34:16;;;;;;;;;;;7.10;99.90;;;;;;4998140;28;19943;-75
2021/12/18 02:36:46;;;;;;;;;;;7.10;99.90;;;;;;4998068;28;19948;-75
2021/12/18 02:39:40;;;;;;;;;;;7.00;99.90;;;;;;4997159;28;19914;-75
2021/12/18 02:42:17;;;;;;;;;;;7.00;99.90;;;;;;4988492;28;19913;-75
2021/12/18 02:44:43;;;;;;;;;;;7.00;99.90;;;;;;5013881;28;19914;-76
2021/12/18 02:47:10;;;;;;;;;;;6.90;99.90;;;;;;4996063;28;19968;-76
2021/12/18 02:49:35;;;;;;;;;;;6.90;99.90;;;;;;4999582;28;19918;-76
2021/12/18 02:52:01;;;;;;;;;;;6.90;99.90;;;;;;4996005;28;19985;-75
2021/12/18 02:54:26;;;;;;;;;;;6.90;99.90;;;;;;4999456;28;20233;-75
2021/12/18 02:56:52;;;;;;;;;;;6.80;99.90;;;;;;5001877;28;20304;-75
2021/12/18 02:59:18;;;;;;;;;;;6.80;99.90;;;;;;5005218;28;19914;-76
2021/12/18 03:01:45;;;;;;;;;;;6.80;99.90;;;;;;4988644;28;20348;-75
2021/12/18 03:04:22;;;;;;;;;;;6.70;99.90;;;;;;4996435;28;19981;-76
2021/12/18 03:06:53;;;;;;;;;;;6.70;99.90;;;;;;4996828;28;19929;-76
2021/12/18 03:25:33;;;;;;;;;;;6.50;99.90;;;;;;5010707;28;19929;-76
2021/12/18 03:28:00;;;;;;;;;;;6.50;99.90;;;;;;4995248;28;20065;-75
2021/12/18 03:30:26;;;;;;;;;;;6.40;99.90;;;;;;4995119;28;19921;-76
2021/12/18 03:32:52;;;;;;;;;;;6.50;99.90;;;;;;5008379;28;19929;-75
2021/12/18 03:35:18;;;;;;;;;;;6.40;99.90;;;;;;4997718;28;19922;-75
2021/12/18 03:37:44;;;;;;;;;;;6.40;99.90;;;;;;5005632;28;19913;-75
2021/12/18 03:40:11;;;;;;;;;;;6.40;99.90;;;;;;4993090;28;19921;-75
2021/12/18 03:42:37;;;;;;;;;;;6.30;99.90;;;;;;5002395;28;19921;-75
2021/12/18 03:45:04;;;;;;;;;;;6.30;99.90;;;;;;5000366;28;19920;-75
2021/12/18 03:47:30;;;;;;;;;;;6.30;99.90;;;;;;5000092;28;19917;-75
2021/12/18 03:49:55;;;;;;;;;;;6.20;99.90;;;;;;5001140;28;19913;-75
2021/12/18 03:52:21;;;;;;;;;;;6.20;99.90;;;;;;5000602;28;19928;-75
2021/12/18 03:54:46;;;;;;;;;;;6.20;99.90;;;;;;4997282;28;20316;-75
2021/12/18 03:57:12;;;;;;;;;;;6.20;99.90;;;;;;5012725;28;19920;-75
2021/12/18 03:59:38;;;;;;;;;;;6.20;99.90;;;;;;5012630;28;20011;-75
2021/12/18 04:02:03;;;;;;;;;;;6.20;99.90;;;;;;4996214;28;19914;-75
2021/12/18 04:04:29;;;;;;;;;;;6.20;99.90;;;;;;5000030;28;20281;-75
2021/12/18 04:06:55;;;;;;;;;;;6.20;99.90;;;;;;4986143;28;19913;-75
2021/12/18 04:09:20;;;;;;;;;;;6.10;99.90;;;;;;4996199;28;20387;-75
2021/12/18 04:11:46;;;;;;;;;;;6.10;99.90;;;;;;4995999;28;19969;-75
2021/12/18 04:14:13;;;;;;;;;;;6.00;99.90;;;;;;4994374;28;19914;-75
2021/12/18 04:16:38;;;;;;;;;;;5.90;99.90;;;;;;5001136;28;19914;-75
2021/12/18 04:19:05;;;;;;;;;;;5.90;99.90;;;;;;4999724;28;19914;-75
2021/12/18 04:21:31;;;;;;;;;;;5.80;99.90;;;;;;5009758;28;19913;-75
2021/12/18 04:23:57;;;;;;;;;;;5.80;99.90;;;;;;5000336;28;19932;-76
2021/12/18 04:26:22;;;;;;;;;;;5.80;99.90;;;;;;5003886;28;20225;-75
2021/12/18 04:28:48;;;;;;;;;;;5.70;99.90;;;;;;4999133;28;20217;-76
2021/12/18 04:31:14;;;;;;;;;;;5.60;99.90;;;;;;4997803;28;20297;-75
2021/12/18 04:33:39;;;;;;;;;;;5.60;99.90;;;;;;4999616;28;19965;-75
2021/12/18 04:36:05;;;;;;;;;;;5.60;99.90;;;;;;4999770;28;19918;-75
2021/12/18 04:38:31;;;;;;;;;;;5.60;99.90;;;;;;4998377;28;20258;-75
2021/12/18 04:40:57;;;;;;;;;;;5.50;99.90;;;;;;4997878;28;19960;-75
2021/12/18 04:43:23;;;;;;;;;;;5.50;99.90;;;;;;4997866;28;19918;-75
2021/12/18 04:45:49;;;;;;;;;;;5.50;99.90;;;;;;4997934;28;19921;-75
2021/12/18 04:48:14;;;;;;;;;;;5.50;99.90;;;;;;5007776;28;19922;-76
2021/12/18 04:50:40;;;;;;;;;;;5.50;99.90;;;;;;4998087;28;19910;-75
2021/12/18 04:53:05;;;;;;;;;;;5.40;99.90;;;;;;5009594;28;19928;-76
2021/12/18 04:55:31;;;;;;;;;;;5.40;99.90;;;;;;4996971;28;19921;-75
2021/12/18 04:57:56;;;;;;;;;;;5.40;99.90;;;;;;5005498;28;19976;-76
2021/12/18 05:00:29;;;;;;;;;;;5.40;99.90;;;;;;4999046;28;19914;-76
2021/12/18 05:02:55;;;;;;;;;;;5.40;99.90;;;;;;5007648;28;19948;-76
2021/12/18 05:05:21;;;;;;;;;;;5.40;99.90;;;;;;5018273;28;19909;-76
2021/12/18 05:07:47;;;;;;;;;;;5.40;99.90;;;;;;5001217;28;20234;-76
2021/12/18 05:10:13;;;;;;;;;;;5.40;99.90;;;;;;5011821;28;20005;-76
2021/12/18 05:12:39;;;;;;;;;;;5.40;99.90;;;;;;4991191;28;19967;-75
2021/12/18 05:15:05;;;;;;;;;;;5.40;99.90;;;;;;4998462;28;20305;-76
2021/12/18 05:17:31;;;;;;;;;;;5.40;99.90;;;;;;4994056;28;19968;-76
2021/12/18 05:19:56;;;;;;;;;;;5.30;99.90;;;;;;4995742;28;19926;-75
2021/12/18 05:22:22;;;;;;;;;;;5.30;99.90;;;;;;4998631;28;20213;-76
2021/12/18 05:24:48;;;;;;;;;;;5.30;99.90;;;;;;5005430;28;19921;-76
2021/12/18 05:27:14;;;;;;;;;;;5.30;99.90;;;;;;5007967;28;20352;-76
2021/12/18 05:29:40;;;;;;;;;;;5.30;99.90;;;;;;4997883;28;20335;-76
2021/12/18 05:32:05;;;;;;;;;;;5.30;99.90;;;;;;5003022;28;19925;-76
2021/12/18 05:34:37;;;;;;;;;;;5.40;99.90;;;;;;4997283;28;20529;-76
2021/12/18 05:37:31;;;;;;;;;;;5.30;99.90;;;;;;4998326;28;19914;-75
2021/12/18 05:39:57;;;;;;;;;;;5.30;99.90;;;;;;5004003;28;20319;-76
2021/12/18 05:42:23;;;;;;;;;;;5.30;99.90;;;;;;5000982;28;20044;-76
2021/12/18 05:44:49;;;;;;;;;;;5.20;99.90;;;;;;5014921;28;19996;-76
2021/12/18 05:47:15;;;;;;;;;;;5.20;99.90;;;;;;5014919;28;19925;-76
2021/12/18 05:49:40;;;;;;;;;;;5.20;99.90;;;;;;5007376;28;20003;-76
2021/12/18 05:52:06;;;;;;;;;;;5.20;99.90;;;;;;5000897;28;19917;-76
2021/12/18 05:54:36;;;;;;;;;;;5.20;99.90;;;;;;5002132;28;19918;-75
2021/12/18 05:57:05;;;;;;;;;;;5.10;99.90;;;;;;4996078;28;19914;-76
2021/12/18 05:59:31;;;;;;;;;;;5.10;99.90;;;;;;5010793;28;19945;-76
2021/12/18 06:01:57;;;;;;;;;;;5.20;99.90;;;;;;4999923;28;20021;-76
2021/12/18 06:04:22;;;;;;;;;;;5.20;99.90;;;;;;5002606;28;19979;-76
2021/12/18 06:06:48;;;;;;;;;;;5.20;99.90;;;;;;4996829;28;20313;-75
2021/12/18 06:09:13;;;;;;;;;;;5.10;99.90;;;;;;5001656;28;19918;-76
2021/12/18 06:11:41;;;;;;;;;;;5.10;99.90;;;;;;4997930;28;19918;-76
2021/12/18 06:14:07;;;;;;;;;;;5.10;99.90;;;;;;4997557;28;20212;-76
2021/12/18 06:16:32;;;;;;;;;;;5.10;99.90;;;;;;4997671;28;19924;-75
2021/12/18 06:18:58;;;;;;;;;;;5.10;99.90;;;;;;4997634;28;19914;-75
2021/12/18 06:21:23;;;;;;;;;;;5.10;99.90;;;;;;4996291;28;19914;-75
2021/12/18 06:23:51;;;;;;;;;;;5.10;99.90;;;;;;5012791;28;20252;-76
2021/12/18 06:26:17;;;;;;;;;;;5.10;99.90;;;;;;5001610;28;19918;-75
2021/12/18 06:28:43;;;;;;;;;;;5.10;99.90;;;;;;4997269;28;20320;-75
2021/12/18 06:31:08;;;;;;;;;;;5.10;99.90;;;;;;4972413;28;19937;-76
2021/12/18 06:33:34;;;;;;;;;;;5.10;99.90;;;;;;5004843;28;19914;-76
2021/12/18 06:36:00;;;;;;;;;;;5.10;99.90;;;;;;4989975;28;19915;-76
2021/12/18 06:38:26;;;;;;;;;;;5.10;99.90;;;;;;5008470;28;19922;-76
2021/12/18 06:40:51;;;;;;;;;;;5.10;99.90;;;;;;5004630;28;20046;-75
2021/12/18 06:43:17;;;;;;;;;;;5.10;99.90;;;;;;5001825;28;20049;-75
2021/12/18 06:45:43;;;;;;;;;;;5.20;99.90;;;;;;4989140;28;20271;-76
2021/12/18 06:48:09;;;;;;;;;;;5.10;99.90;;;;;;5026124;28;19924;-76
2021/12/18 06:50:35;;;;;;;;;;;5.10;99.90;;;;;;5000330;28;20021;-76
2021/12/18 06:53:00;;;;;;;;;;;5.00;99.90;;;;;;4999450;28;19925;-76
2021/12/18 06:55:26;;;;;;;;;;;5.10;99.90;;;;;;4996790;28;20309;-76
2021/12/18 06:57:51;;;;;;;;;;;5.10;99.90;;;;;;5006194;28;20040;-76
2021/12/18 07:00:18;;;;;;;;;;;5.10;99.90;;;;;;4999416;28;19928;-75
2021/12/18 07:02:44;;;;;;;;;;;5.00;99.90;;;;;;4996002;28;19937;-75
2021/12/18 07:05:10;;;;;;;;;;;5.00;99.90;;;;;;4995423;28;20293;-75
2021/12/18 07:07:36;;;;;;;;;;;5.00;99.90;;;;;;4997713;28;20252;-75
2021/12/18 07:10:02;;;;;;;;;;;5.00;99.90;;;;;;5012132;28;19976;-75
2021/12/18 07:12:28;;;;;;;;;;;4.90;99.90;;;;;;4997772;28;19929;-75
2021/12/18 07:14:53;;;;;;;;;;;4.80;99.90;;;;;;4996376;28;19910;-75
2021/12/18 07:17:19;;;;;;;;;;;4.80;99.90;;;;;;4995890;28;20218;-75
2021/12/18 07:19:44;;;;;;;;;;;4.80;99.90;;;;;;4996736;28;19914;-76
2021/12/18 07:22:10;;;;;;;;;;;4.80;99.90;;;;;;4995661;28;19925;-76
2021/12/18 07:24:36;;;;;;;;;;;4.80;99.90;;;;;;4999761;28;19922;-75
2021/12/18 07:27:01;;;;;;;;;;;4.80;99.90;;;;;;4997649;28;19964;-75
2021/12/18 07:29:27;;;;;;;;;;;4.80;99.90;;;;;;4994385;28;19933;-75
2021/12/18 07:31:52;;;;;;;;;;;4.80;99.90;;;;;;4987772;28;20344;-75
2021/12/18 07:34:18;;;;;;;;;;;4.70;99.90;;;;;;4994284;28;19914;-76
2021/12/18 07:36:44;;;;;;;;;;;4.70;99.90;;;;;;4984697;28;20256;-76
2021/12/18 07:39:10;;;;;;;;;;;4.70;99.90;;;;;;4992854;28;19914;-76
2021/12/18 07:41:35;;;;;;;;;;;4.80;99.90;;;;;;4995529;28;19914;-76
2021/12/18 07:44:03;;;;;;;;;;;4.70;99.90;;;;;;4995561;28;19975;-75
2021/12/18 07:46:29;;;;;;;;;;;4.80;99.90;;;;;;4994118;28;19940;-75
2021/12/18 07:48:55;;;;;;;;;;;4.80;99.90;;;;;;4993267;28;19914;-76
2021/12/18 07:51:21;;;;;;;;;;;4.80;99.90;;;;;;5008741;28;19921;-75
2021/12/18 07:53:46;;;;;;;;;;;4.80;99.90;;;;;;4994171;28;19922;-75
2021/12/18 07:56:12;;;;;;;;;;;4.80;99.90;;;;;;4992652;28;20005;-75
2021/12/18 07:58:39;;;;;;;;;;;4.80;99.90;;;;;;4995171;28;19922;-76
2021/12/18 08:01:05;;;;;;;;;;;4.80;99.90;;;;;;4993503;28;19914;-75
2021/12/18 08:03:30;;;;;;;;;;;4.80;99.90;;;;;;4994061;28;19921;-75
2021/12/18 08:05:56;;;;;;;;;;;4.90;99.90;;;;;;4993288;28;19918;-76
2021/12/18 08:08:22;;;;;;;;;;;4.90;99.90;;;;;;5009121;28;19918;-76
2021/12/18 08:10:47;;;;;;;;;;;4.90;99.90;;;;;;4994221;28;20009;-76
2021/12/18 08:13:13;;;;;;;;;;;4.90;99.90;;;;;;5008516;28;19969;-76
2021/12/18 08:15:39;;;;;;;;;;;4.80;99.90;;;;;;4992690;28;19921;-76
2021/12/18 08:18:07;;;;;;;;;;;4.80;99.90;;;;;;4992426;28;19917;-76
2021/12/18 08:20:34;;;;;;;;;;;4.80;99.90;;;;;;4991762;28;19967;-76
2021/12/18 08:23:00;;;;;;;;;;;4.80;99.90;;;;;;4992617;28;20321;-76
2021/12/18 08:25:27;;;;;;;;;;;4.80;99.90;;;;;;4991995;28;19914;-76
2021/12/18 08:27:58;;;;;;;;;;;4.80;99.90;;;;;;4989138;28;19918;-76
2021/12/18 08:30:24;;;;;;;;;;;4.80;99.90;;;;;;4993171;28;19921;-76
2021/12/18 08:32:50;;;;;;;;;;;4.70;99.90;;;;;;4990187;28;19949;-75
2021/12/18 08:35:16;;;;;;;;;;;4.80;99.90;;;;;;4999133;28;19917;-75
2021/12/18 08:37:41;;;;;;;;;;;4.80;99.90;;;;;;4993620;28;20228;-76
2021/12/18 08:40:08;;;;;;;;;;;4.80;99.90;;;;;;4990987;28;19968;-76
2021/12/18 08:42:34;;;;;;;;;;;4.80;99.90;;;;;;4973252;28;19918;-76
2021/12/18 08:44:59;;;;;;;;;;;4.80;99.90;;;;;;4993670;28;19940;-75
2021/12/18 08:47:25;;;;;;;;;;;4.90;99.90;;;;;;4993817;28;19941;-75
2021/12/18 08:49:51;;;;;;;;;;;5.00;99.90;;;;;;4994222;28;19921;-76
2021/12/18 08:52:17;;;;;;;;;;;5.00;99.90;;;;;;4992704;28;20379;-76
2021/12/18 08:54:43;;;;;;;;;;;4.90;99.90;;;;;;4993936;28;19945;-76
2021/12/18 08:57:09;;;;;;;;;;;5.00;99.90;;;;;;4994227;28;19914;-76
2021/12/18 08:59:35;;;;;;;;;;;5.00;99.90;;;;;;4993381;28;20330;-76
2021/12/18 09:02:00;;;;;;;;;;;4.90;99.90;;;;;;4993504;28;20008;-76
2021/12/18 09:04:26;;;;;;;;;;;4.90;99.90;;;;;;4995035;28;21112;-76
2021/12/18 09:06:52;;;;;;;;;;;4.90;99.90;;;;;;4996863;28;20265;-76
2021/12/18 09:09:17;;;;;;;;;;;4.90;99.90;;;;;;4996942;28;19953;-76
2021/12/18 09:11:43;;;;;;;;;;;4.90;99.90;;;;;;4996305;28;20029;-76
2021/12/18 09:14:09;;;;;;;;;;;4.90;99.90;;;;;;4992270;28;19980;-75
2021/12/18 09:16:34;;;;;;;;;;;4.90;99.90;;;;;;4996448;28;19968;-76
2021/12/18 09:19:00;;;;;;;;;;;4.90;99.90;;;;;;4995848;28;19918;-76
2021/12/18 09:21:25;;;;;;;;;;;4.90;99.90;;;;;;4995720;28;19925;-76
2021/12/18 09:23:51;;;;;;;;;;;4.90;99.90;;;;;;4996735;28;20336;-76
2021/12/18 09:26:17;;;;;;;;;;;4.80;99.90;;;;;;4997207;28;20396;-76
2021/12/18 09:28:42;;;;;;;;;;;4.90;99.90;;;;;;4995426;28;19913;-76
2021/12/18 09:31:08;;;;;;;;;;;4.90;99.90;;;;;;4996499;28;20295;-77
2021/12/18 09:33:33;;;;;;;;;;;4.90;99.90;;;;;;4996099;28;19914;-77
2021/12/18 09:36:02;;;;;;;;;;;4.90;99.90;;;;;;4994618;28;20187;-76
2021/12/18 09:38:27;;;;;;;;;;;4.90;99.90;;;;;;4996378;28;19922;-76
2021/12/18 09:40:56;;;;;;;;;;;5.00;99.90;;;;;;4995325;28;19949;-76
2021/12/18 09:43:22;;;;;;;;;;;5.00;99.90;;;;;;4985849;28;19914;-76
2021/12/18 09:45:48;;;;;;;;;;;5.00;99.90;;;;;;4986871;28;19925;-76
2021/12/18 09:48:13;;;;;;;;;;;5.10;99.90;;;;;;4994973;28;19918;-76
2021/12/18 09:50:41;;;;;;;;;;;5.10;99.90;;;;;;4994043;28;20381;-77
2021/12/18 09:53:07;;;;;;;;;;;5.10;99.90;;;;;;4993277;28;19928;-77
2021/12/18 09:55:33;;;;;;;;;;;5.10;99.90;;;;;;4996039;28;19914;-76
2021/12/18 09:57:58;;;;;;;;;;;5.20;99.90;;;;;;4993588;28;19917;-78
2021/12/18 10:00:24;;;;;;;;;;;5.20;99.90;;;;;;4994398;28;19965;-77
2021/12/18 10:02:50;;;;;;;;;;;5.20;99.90;;;;;;5007851;28;19922;-76
2021/12/18 10:05:24;;;;;;;;;;;5.20;99.90;;;;;;4993172;28;20000;-76
2021/12/18 10:08:08;;;;;;;;;;;5.20;99.90;;;;;;5009562;28;21126;-77
2021/12/18 10:10:34;;;;;;;;;;;5.20;99.90;;;;;;4994758;28;19968;-76
2021/12/18 10:13:07;;;;;;;;;;;5.20;99.90;;;;;;4995551;28;20336;-76
2021/12/18 10:15:33;;;;;;;;;;;5.30;99.90;;;;;;4995252;28;19918;-76
2021/12/18 10:18:06;;;;;;;;;;;5.30;99.90;;;;;;4990356;28;19914;-77
2021/12/18 10:20:31;;;;;;;;;;;5.30;99.90;;;;;;4985618;28;19929;-76
2021/12/18 10:22:59;;;;;;;;;;;5.30;99.90;;;;;;4989232;28;19921;-78
2021/12/18 10:25:29;;;;;;;;;;;5.40;99.90;;;;;;4988004;28;19996;-76
2021/12/18 10:27:57;;;;;;;;;;;5.40;99.90;;;;;;4980082;28;19918;-76
2021/12/18 10:30:23;;;;;;;;;;;5.50;99.90;;;;;;4976513;28;19961;-77
2021/12/18 10:33:06;;;;;;;;;;;5.50;99.90;;;;;;4994828;28;19921;-76
2021/12/18 10:35:50;;;;;;;;;;;5.50;99.90;;;;;;5002106;28;20218;-76
2021/12/18 10:38:34;;;;;;;;;;;5.40;99.90;;;;;;5010815;28;19921;-77
2021/12/18 10:41:00;;;;;;;;;;;5.40;99.90;;;;;;4986834;28;19922;-76
2021/12/18 10:43:25;;;;;;;;;;;5.50;99.90;;;;;;4985867;28;20016;-76
2021/12/18 10:45:51;;;;;;;;;;;5.50;99.90;;;;;;4977369;28;20059;-77
2021/12/18 10:48:17;;;;;;;;;;;5.40;99.90;;;;;;4987557;28;19917;-76
2021/12/18 10:50:49;;;;;;;;;;;5.50;99.90;;;;;;4987217;28;19973;-76
2021/12/18 10:53:16;;;;;;;;;;;5.40;99.90;;;;;;4988036;28;19921;-77
2021/12/18 10:56:00;;;;;;;;;;;5.40;99.90;;;;;;4978981;28;19957;-76
2021/12/18 10:58:28;;;;;;;;;;;5.40;99.90;;;;;;4998669;28;20285;-76
2021/12/18 11:01:03;;;;;;;;;;;5.50;99.90;;;;;;5001835;28;20198;-78
2021/12/18 11:03:30;;;;;;;;;;;5.50;99.90;;;;;;4987353;28;19943;-76
2021/12/18 11:06:16;;;;;;;;;;;5.60;99.90;;;;;;4990469;28;19928;-75
2021/12/18 11:08:56;;;;;;;;;;;5.60;99.90;;;;;;4986750;28;19917;-76
2021/12/18 11:14:01;;;;;;;;;;;5.60;99.90;;;;;;4986399;28;19928;-77
2021/12/18 11:16:28;;;;;;;;;;;5.60;99.90;;;;;;4984266;28;20485;-76
2021/12/18 11:18:54;;;;;;;;;;;5.60;99.90;;;;;;4985722;28;19968;-76
2021/12/18 11:21:22;;;;;;;;;;;5.70;99.90;;;;;;5001419;28;19964;-77
2021/12/18 11:23:53;;;;;;;;;;;5.70;99.90;;;;;;4986247;28;19984;-77
2021/12/18 11:26:21;;;;;;;;;;;5.90;99.90;;;;;;4981974;28;19925;-76
2021/12/18 11:28:48;;;;;;;;;;;6.00;99.90;;;;;;4984517;28;20017;-76
2021/12/18 11:31:14;;;;;;;;;;;6.10;99.90;;;;;;5000212;28;19917;-77
2021/12/18 11:33:41;;;;;;;;;;;6.10;99.90;;;;;;4988502;28;19924;-78
2021/12/18 11:36:08;;;;;;;;;;;6.00;99.90;;;;;;4986814;28;20336;-76
2021/12/18 11:38:34;;;;;;;;;;;6.10;99.90;;;;;;4988253;28;19925;-76
2021/12/18 11:41:00;;;;;;;;;;;6.10;99.90;;;;;;4987540;28;19922;-76
2021/12/18 11:43:39;;;;;;;;;;;6.10;99.90;;;;;;4982901;28;20066;-76
2021/12/18 11:46:23;;;;;;;;;;;6.10;99.90;;;;;;4983013;28;19947;-77
2021/12/18 11:48:52;;;;;;;;;;;6.10;99.90;;;;;;4987336;28;19922;-75
2021/12/18 11:51:18;;;;;;;;;;;6.20;99.90;;;;;;4985132;28;19922;-76
2021/12/18 11:53:43;;;;;;;;;;;6.30;99.90;;;;;;5000666;28;20336;-76
2021/12/18 11:56:09;;;;;;;;;;;6.40;99.90;;;;;;4985036;28;19918;-76
2021/12/18 11:58:40;;;;;;;;;;;6.30;99.90;;;;;;4986163;28;19996;-76
2021/12/18 12:01:17;;;;;;;;;;;6.10;99.90;;;;;;4989138;28;19921;-76
2021/12/18 12:03:43;;;;;;;;;;;6.10;99.90;;;;;;4984583;28;19973;-77
2021/12/18 12:06:29;;;;;;;;;;;6.10;99.90;;;;;;5000196;28;19988;-76
2021/12/18 12:09:15;;;;;;;;;;;6.20;99.90;;;;;;4987570;28;19917;-76
2021/12/18 12:11:59;;;;;;;;;;;6.20;99.90;;;;;;4987897;28;19922;-76
2021/12/18 12:14:26;;;;;;;;;;;6.10;99.90;;;;;;4997601;28;19917;-76
2021/12/18 12:16:52;;;;;;;;;;;6.10;99.90;;;;;;5001422;28;20387;-77
2021/12/18 12:19:19;;;;;;;;;;;6.20;99.90;;;;;;4988310;28;20012;-78
2021/12/18 12:21:47;;;;;;;;;;;6.10;99.90;;;;;;4986224;28;19953;-77
2021/12/18 12:24:14;;;;;;;;;;;6.10;99.90;;;;;;4987171;28;20228;-77
2021/12/18 12:26:40;;;;;;;;;;;6.20;99.90;;;;;;4987252;28;19918;-76
2021/12/18 12:29:06;;;;;;;;;;;6.20;99.90;;;;;;4988969;28;20339;-76
2021/12/18 12:31:33;;;;;;;;;;;6.30;99.90;;;;;;4988674;28;20334;-76
2021/12/18 12:34:37;;;;;;;;;;;6.30;99.90;;;;;;5003474;28;19976;-77
2021/12/18 12:37:21;;;;;;;;;;;6.30;99.90;;;;;;5002025;28;20236;-75
2021/12/18 12:39:56;;;;;;;;;;;6.40;99.90;;;;;;4990035;28;20022;-76
2021/12/18 12:42:22;;;;;;;;;;;6.40;99.90;;;;;;5008246;28;20202;-77
2021/12/18 12:44:55;;;;;;;;;;;6.30;99.90;;;;;;4986518;28;20004;-76
2021/12/18 12:47:27;;;;;;;;;;;6.30;99.90;;;;;;4978120;28;20288;-76
2021/12/18 12:50:11;;;;;;;;;;;6.40;99.90;;;;;;4991465;28;19922;-76
2021/12/18 12:52:52;;;;;;;;;;;6.50;99.90;;;;;;5002833;28;19941;-76
2021/12/18 12:55:19;;;;;;;;;;;6.60;99.90;;;;;;4998305;28;20316;-76
2021/12/18 12:57:55;;;;;;;;;;;6.70;99.90;;;;;;5005281;28;19918;-76
2021/12/18 13:00:21;;;;;;;;;;;6.70;99.90;;;;;;4987014;28;20008;-77
2021/12/18 13:02:59;;;;;;;;;;;6.80;99.90;;;;;;4989366;28;20001;-76
2021/12/18 13:05:26;;;;;;;;;;;6.70;99.90;;;;;;5006507;28;19945;-76
2021/12/18 13:07:53;;;;;;;;;;;6.60;99.90;;;;;;4996672;28;20470;-76
2021/12/18 13:10:19;;;;;;;;;;;6.70;99.90;;;;;;4992027;28;19968;-76
2021/12/18 13:12:57;;;;;;;;;;;6.70;99.90;;;;;;5004352;28;19922;-76
2021/12/18 13:15:23;;;;;;;;;;;6.80;99.90;;;;;;4990359;28;19922;-77
2021/12/18 13:18:03;;;;;;;;;;;6.80;99.90;;;;;;4987740;28;19980;-76
2021/12/18 13:20:29;;;;;;;;;;;6.80;99.90;;;;;;4986749;28;19952;-76
2021/12/18 13:22:54;;;;;;;;;;;6.90;99.90;;;;;;5007207;28;19980;-76
2021/12/18 13:25:20;;;;;;;;;;;6.90;99.90;;;;;;4988534;28;20360;-76
2021/12/18 13:28:03;;;;;;;;;;;6.90;99.90;;;;;;4992081;28;19964;-76
2021/12/18 13:30:29;;;;;;;;;;;6.90;99.90;;;;;;5005632;28;20320;-75
2021/12/18 13:32:57;;;;;;;;;;;6.80;99.90;;;;;;4991651;28;19922;-75
2021/12/18 13:35:25;;;;;;;;;;;6.80;99.90;;;;;;5002550;28;19918;-75
2021/12/18 13:37:57;;;;;;;;;;;6.90;99.90;;;;;;4991396;28;19934;-75
2021/12/18 13:40:23;;;;;;;;;;;7.00;99.90;;;;;;4991086;28;19926;-76
2021/12/18 13:43:02;;;;;;;;;;;7.10;99.90;;;;;;4989302;28;19980;-76
2021/12/18 13:45:28;;;;;;;;;;;7.10;99.90;;;;;;4988752;28;19926;-76
2021/12/18 13:47:53;;;;;;;;;;;7.00;99.90;;;;;;4989841;28;20272;-76
2021/12/18 13:50:20;;;;;;;;;;;6.90;99.90;;;;;;4995023;28;19918;-76
2021/12/18 13:52:47;;;;;;;;;;;6.80;99.90;;;;;;4982633;28;19933;-76
2021/12/18 13:55:31;;;;;;;;;;;6.90;99.90;;;;;;4985095;28;20004;-76
2021/12/18 13:57:57;;;;;;;;;;;7.00;99.90;;;;;;4990034;28;19964;-75
2021/12/18 14:00:22;;;;;;;;;;;7.10;99.90;;;;;;4990807;28;19921;-75
2021/12/18 14:02:48;;;;;;;;;;;7.20;99.90;;;;;;4980416;28;20024;-76
2021/12/18 14:05:13;;;;;;;;;;;7.20;99.90;;;;;;4996987;28;19918;-75
2021/12/18 14:07:40;;;;;;;;;;;7.10;99.90;;;;;;4989991;28;19922;-75
2021/12/18 14:10:07;;;;;;;;;;;7.10;99.90;;;;;;4987200;28;19925;-75
2021/12/18 14:12:33;;;;;;;;;;;7.20;99.90;;;;;;4985358;28;19953;-76
2021/12/18 14:15:00;;;;;;;;;;;7.20;99.90;;;;;;4989634;28;19961;-77
2021/12/18 14:17:25;;;;;;;;;;;7.10;99.90;;;;;;4988642;28;19921;-76
2021/12/18 14:19:53;;;;;;;;;;;7.20;99.90;;;;;;4988011;28;19918;-76
2021/12/18 14:22:37;;;;;;;;;;;7.20;99.90;;;;;;4990413;28;19949;-78
2021/12/18 14:25:07;;;;;;;;;;;7.10;99.90;;;;;;4988873;28;19925;-76
2021/12/18 14:27:37;;;;;;;;;;;7.10;99.90;;;;;;4989612;28;19957;-77
2021/12/18 14:30:03;;;;;;;;;;;7.10;99.90;;;;;;4989123;28;19917;-76
2021/12/18 14:32:28;;;;;;;;;;;7.10;99.90;;;;;;4990150;28;20595;-79
2021/12/18 14:35:02;;;;;;;;;;;7.10;99.90;;;;;;4989795;28;19918;-77
2021/12/18 14:37:27;;;;;;;;;;;7.00;99.90;;;;;;4989939;28;19921;-76
2021/12/18 14:39:54;;;;;;;;;;;7.10;99.90;;;;;;4990326;28;19921;-77
2021/12/18 14:42:27;;;;;;;;;;;7.10;99.90;;;;;;4990477;28;19924;-76
2021/12/18 14:45:13;;;;;;;;;;;7.10;99.90;;;;;;5004771;28;19929;-76
2021/12/18 14:47:41;;;;;;;;;;;7.00;99.90;;;;;;4981169;28;20324;-76
2021/12/18 14:50:11;;;;;;;;;;;7.10;99.90;;;;;;5002036;28;19918;-77
2021/12/18 14:52:49;;;;;;;;;;;7.00;99.90;;;;;;4999147;28;20568;-77
2021/12/18 14:55:14;;;;;;;;;;;7.00;99.90;;;;;;4989439;28;19918;-76
2021/12/18 14:57:50;;;;;;;;;;;7.00;99.90;;;;;;4989859;28;19972;-77
2021/12/18 15:00:19;;;;;;;;;;;7.00;99.90;;;;;;4988959;28;20336;-76
2021/12/18 15:03:00;;;;;;;;;;;7.00;99.90;;;;;;4978579;28;19928;-76
2021/12/18 15:05:27;;;;;;;;;;;7.00;99.90;;;;;;4999038;28;19917;-76
2021/12/18 15:07:56;;;;;;;;;;;7.00;99.90;;;;;;4980833;28;19922;-76
2021/12/18 15:10:22;;;;;;;;;;;7.00;99.90;;;;;;4981956;28;19922;-76
2021/12/18 15:12:48;;;;;;;;;;;7.00;99.90;;;;;;4986956;28;20225;-76
2021/12/18 15:15:14;;;;;;;;;;;7.00;99.90;;;;;;4990068;28;20000;-76
2021/12/18 15:17:39;;;;;;;;;;;7.10;99.90;;;;;;4988312;28;20328;-77
2021/12/18 15:20:05;;;;;;;;;;;7.10;99.90;;;;;;4990404;28;19925;-76
2021/12/18 15:22:31;;;;;;;;;;;7.10;99.90;;;;;;4988825;28;19933;-76